Terminal Aerodrome Forecast
Issued by NWS Charleston, SC

Home | Current Version | Previous Version | Text Only | Print | Product List | Glossary On
Versions: 1 2 3 4 5 6 7 8 9 10 11 12 13
271
FTUS42 KCHS 261720
TAFCHS
TAF
KCHS 261720Z 2618/2718 18009KT P6SM SCT045 SCT200
     FM270300 VRB02KT P6SM FEW250
     FM271400 11007KT P6SM FEW040=

USA.gov is the U.S. government's official web portal to all federal, state and local government web resources and services.